sensor_id;sensor_type;location;lat;lon;timestamp;P1;durP1;ratioP1;P2;durP2;ratioP2
20230;SDS011;10274;49.022;9.338;2023-04-06T00:02:26;5.77;;;4.47;;
20230;SDS011;10274;49.022;9.338;2023-04-06T00:04:53;5.30;;;4.20;;
20230;SDS011;10274;49.022;9.338;2023-04-06T00:07:20;5.73;;;4.73;;
20230;SDS011;10274;49.022;9.338;2023-04-06T00:09:46;6.37;;;5.00;;
20230;SDS011;10274;49.022;9.338;2023-04-06T00:12:13;5.40;;;4.20;;
20230;SDS011;10274;49.022;9.338;2023-04-06T00:14:40;7.70;;;4.87;;
20230;SDS011;10274;49.022;9.338;2023-04-06T00:17:06;6.10;;;4.50;;
20230;SDS011;10274;49.022;9.338;2023-04-06T00:19:34;6.90;;;4.53;;
20230;SDS011;10274;49.022;9.338;2023-04-06T00:22:02;6.17;;;4.60;;
20230;SDS011;10274;49.022;9.338;2023-04-06T00:24:28;5.73;;;4.40;;
20230;SDS011;10274;49.022;9.338;2023-04-06T00:26:55;5.83;;;4.07;;
20230;SDS011;10274;49.022;9.338;2023-04-06T00:29:22;4.17;;;3.70;;
20230;SDS011;10274;49.022;9.338;2023-04-06T00:31:48;4.70;;;4.20;;
20230;SDS011;10274;49.022;9.338;2023-04-06T00:34:15;4.93;;;3.87;;
20230;SDS011;10274;49.022;9.338;2023-04-06T00:36:43;4.97;;;4.17;;
20230;SDS011;10274;49.022;9.338;2023-04-06T00:39:10;5.07;;;4.00;;
20230;SDS011;10274;49.022;9.338;2023-04-06T00:41:36;5.07;;;4.57;;
20230;SDS011;10274;49.022;9.338;2023-04-06T00:44:04;5.87;;;4.43;;
20230;SDS011;10274;49.022;9.338;2023-04-06T00:46:31;5.37;;;4.50;;
20230;SDS011;10274;49.022;9.338;2023-04-06T00:48:58;6.27;;;4.23;;
20230;SDS011;10274;49.022;9.338;2023-04-06T00:51:25;4.77;;;4.23;;
20230;SDS011;10274;49.022;9.338;2023-04-06T00:53:53;5.10;;;4.50;;
20230;SDS011;10274;49.022;9.338;2023-04-06T00:56:19;5.00;;;4.07;;
20230;SDS011;10274;49.022;9.338;2023-04-06T00:58:48;7.60;;;4.30;;
20230;SDS011;10274;49.022;9.338;2023-04-06T01:01:15;5.80;;;3.83;;
20230;SDS011;10274;49.022;9.338;2023-04-06T01:03:42;5.03;;;4.10;;
20230;SDS011;10274;49.022;9.338;2023-04-06T01:06:09;5.07;;;3.57;;
20230;SDS011;10274;49.022;9.338;2023-04-06T01:08:36;5.03;;;3.80;;
20230;SDS011;10274;49.022;9.338;2023-04-06T01:11:04;4.63;;;4.10;;
20230;SDS011;10274;49.022;9.338;2023-04-06T01:13:30;5.70;;;4.13;;
20230;SDS011;10274;49.022;9.338;2023-04-06T01:15:57;5.00;;;4.33;;
20230;SDS011;10274;49.022;9.338;2023-04-06T01:18:27;5.20;;;4.20;;
20230;SDS011;10274;49.022;9.338;2023-04-06T01:20:55;5.63;;;4.50;;
20230;SDS011;10274;49.022;9.338;2023-04-06T01:23:23;5.67;;;4.67;;
20230;SDS011;10274;49.022;9.338;2023-04-06T01:25:49;5.00;;;4.27;;
20230;SDS011;10274;49.022;9.338;2023-04-06T01:28:16;4.57;;;3.87;;
20230;SDS011;10274;49.022;9.338;2023-04-06T01:30:43;5.07;;;3.70;;
20230;SDS011;10274;49.022;9.338;2023-04-06T01:33:10;5.87;;;4.20;;
20230;SDS011;10274;49.022;9.338;2023-04-06T01:35:36;6.80;;;4.53;;
20230;SDS011;10274;49.022;9.338;2023-04-06T01:38:03;5.23;;;4.27;;
20230;SDS011;10274;49.022;9.338;2023-04-06T01:40:31;5.30;;;4.10;;
20230;SDS011;10274;49.022;9.338;2023-04-06T01:42:58;6.03;;;4.40;;
20230;SDS011;10274;49.022;9.338;2023-04-06T01:45:25;5.40;;;4.13;;
20230;SDS011;10274;49.022;9.338;2023-04-06T01:47:51;5.77;;;4.30;;
20230;SDS011;10274;49.022;9.338;2023-04-06T01:50:18;5.83;;;4.10;;
20230;SDS011;10274;49.022;9.338;2023-04-06T01:52:45;5.43;;;4.70;;
20230;SDS011;10274;49.022;9.338;2023-04-06T01:55:11;5.10;;;4.27;;
20230;SDS011;10274;49.022;9.338;2023-04-06T01:57:39;4.70;;;3.90;;
20230;SDS011;10274;49.022;9.338;2023-04-06T02:00:06;5.03;;;4.23;;
20230;SDS011;10274;49.022;9.338;2023-04-06T02:02:34;4.77;;;4.03;;
20230;SDS011;10274;49.022;9.338;2023-04-06T02:05:00;5.70;;;4.30;;
20230;SDS011;10274;49.022;9.338;2023-04-06T02:07:27;5.57;;;4.33;;
20230;SDS011;10274;49.022;9.338;2023-04-06T02:09:54;5.20;;;4.40;;
20230;SDS011;10274;49.022;9.338;2023-04-06T02:12:21;6.20;;;4.47;;
20230;SDS011;10274;49.022;9.338;2023-04-06T02:14:50;5.10;;;4.10;;
20230;SDS011;10274;49.022;9.338;2023-04-06T02:17:16;4.80;;;4.30;;
20230;SDS011;10274;49.022;9.338;2023-04-06T02:19:43;5.70;;;4.20;;
20230;SDS011;10274;49.022;9.338;2023-04-06T02:22:10;5.93;;;4.47;;
20230;SDS011;10274;49.022;9.338;2023-04-06T02:24:37;4.80;;;4.17;;
20230;SDS011;10274;49.022;9.338;2023-04-06T02:27:03;6.87;;;4.97;;
20230;SDS011;10274;49.022;9.338;2023-04-06T02:29:31;5.00;;;4.50;;
20230;SDS011;10274;49.022;9.338;2023-04-06T02:31:59;5.50;;;4.23;;
20230;SDS011;10274;49.022;9.338;2023-04-06T02:34:25;5.67;;;4.60;;
20230;SDS011;10274;49.022;9.338;2023-04-06T02:36:52;5.77;;;4.70;;
20230;SDS011;10274;49.022;9.338;2023-04-06T02:39:18;5.13;;;3.93;;
20230;SDS011;10274;49.022;9.338;2023-04-06T02:41:45;6.03;;;4.70;;
20230;SDS011;10274;49.022;9.338;2023-04-06T02:44:12;5.43;;;4.43;;
20230;SDS011;10274;49.022;9.338;2023-04-06T02:46:38;4.80;;;4.30;;
20230;SDS011;10274;49.022;9.338;2023-04-06T02:49:06;4.60;;;4.10;;
20230;SDS011;10274;49.022;9.338;2023-04-06T02:51:33;5.87;;;4.60;;
20230;SDS011;10274;49.022;9.338;2023-04-06T02:54:00;5.13;;;4.17;;
20230;SDS011;10274;49.022;9.338;2023-04-06T02:56:27;6.83;;;4.77;;
20230;SDS011;10274;49.022;9.338;2023-04-06T02:58:53;4.57;;;4.00;;
20230;SDS011;10274;49.022;9.338;2023-04-06T03:01:20;5.60;;;4.40;;
20230;SDS011;10274;49.022;9.338;2023-04-06T03:03:46;8.20;;;5.03;;
20230;SDS011;10274;49.022;9.338;2023-04-06T03:06:15;6.10;;;5.20;;
20230;SDS011;10274;49.022;9.338;2023-04-06T03:08:41;7.00;;;4.30;;
20230;SDS011;10274;49.022;9.338;2023-04-06T03:11:08;5.80;;;4.23;;
20230;SDS011;10274;49.022;9.338;2023-04-06T03:13:35;7.03;;;4.60;;
20230;SDS011;10274;49.022;9.338;2023-04-06T03:16:03;5.40;;;4.33;;
20230;SDS011;10274;49.022;9.338;2023-04-06T03:18:31;8.10;;;5.17;;
20230;SDS011;10274;49.022;9.338;2023-04-06T03:20:58;5.10;;;4.60;;
20230;SDS011;10274;49.022;9.338;2023-04-06T03:23:26;5.33;;;4.77;;
20230;SDS011;10274;49.022;9.338;2023-04-06T03:25:53;5.77;;;4.27;;
20230;SDS011;10274;49.022;9.338;2023-04-06T03:28:19;4.77;;;4.17;;
20230;SDS011;10274;49.022;9.338;2023-04-06T03:30:46;5.67;;;4.40;;
20230;SDS011;10274;49.022;9.338;2023-04-06T03:33:13;4.70;;;4.00;;
20230;SDS011;10274;49.022;9.338;2023-04-06T03:35:40;7.17;;;5.27;;
20230;SDS011;10274;49.022;9.338;2023-04-06T03:38:06;5.47;;;4.17;;
20230;SDS011;10274;49.022;9.338;2023-04-06T03:40:34;6.33;;;4.67;;
20230;SDS011;10274;49.022;9.338;2023-04-06T03:43:01;6.30;;;4.70;;
20230;SDS011;10274;49.022;9.338;2023-04-06T03:45:28;6.03;;;4.87;;
20230;SDS011;10274;49.022;9.338;2023-04-06T03:47:54;5.93;;;4.50;;
20230;SDS011;10274;49.022;9.338;2023-04-06T03:50:21;5.33;;;4.60;;
20230;SDS011;10274;49.022;9.338;2023-04-06T03:52:48;4.67;;;4.07;;
20230;SDS011;10274;49.022;9.338;2023-04-06T03:55:14;6.43;;;4.60;;
20230;SDS011;10274;49.022;9.338;2023-04-06T03:57:43;5.77;;;4.40;;
20230;SDS011;10274;49.022;9.338;2023-04-06T04:00:10;6.97;;;4.97;;
20230;SDS011;10274;49.022;9.338;2023-04-06T04:02:37;7.87;;;4.67;;
20230;SDS011;10274;49.022;9.338;2023-04-06T04:05:04;7.33;;;4.93;;
20230;SDS011;10274;49.022;9.338;2023-04-06T04:07:31;5.73;;;4.60;;
20230;SDS011;10274;49.022;9.338;2023-04-06T04:09:58;5.90;;;4.60;;
20230;SDS011;10274;49.022;9.338;2023-04-06T04:12:25;6.03;;;4.57;;
20230;SDS011;10274;49.022;9.338;2023-04-06T04:14:53;6.00;;;4.80;;
20230;SDS011;10274;49.022;9.338;2023-04-06T04:17:21;5.80;;;4.60;;
20230;SDS011;10274;49.022;9.338;2023-04-06T04:19:47;6.87;;;4.70;;
20230;SDS011;10274;49.022;9.338;2023-04-06T04:22:14;6.07;;;5.00;;
20230;SDS011;10274;49.022;9.338;2023-04-06T04:24:41;7.53;;;4.77;;
20230;SDS011;10274;49.022;9.338;2023-04-06T04:27:07;5.53;;;4.60;;
20230;SDS011;10274;49.022;9.338;2023-04-06T04:29:34;6.93;;;4.93;;
20230;SDS011;10274;49.022;9.338;2023-04-06T04:32:02;5.87;;;4.63;;
20230;SDS011;10274;49.022;9.338;2023-04-06T04:34:29;6.77;;;5.43;;
20230;SDS011;10274;49.022;9.338;2023-04-06T04:36:56;6.37;;;5.00;;
20230;SDS011;10274;49.022;9.338;2023-04-06T04:39:23;6.50;;;5.50;;
20230;SDS011;10274;49.022;9.338;2023-04-06T04:41:49;7.17;;;4.67;;
20230;SDS011;10274;49.022;9.338;2023-04-06T04:44:16;6.73;;;5.10;;
20230;SDS011;10274;49.022;9.338;2023-04-06T04:46:43;6.13;;;5.33;;
20230;SDS011;10274;49.022;9.338;2023-04-06T04:49:11;4.97;;;4.47;;
20230;SDS011;10274;49.022;9.338;2023-04-06T04:51:37;6.30;;;4.67;;
20230;SDS011;10274;49.022;9.338;2023-04-06T04:54:04;5.40;;;4.67;;
20230;SDS011;10274;49.022;9.338;2023-04-06T04:56:31;5.60;;;4.87;;
20230;SDS011;10274;49.022;9.338;2023-04-06T04:58:58;7.10;;;6.10;;
20230;SDS011;10274;49.022;9.338;2023-04-06T05:01:25;6.50;;;4.93;;
20230;SDS011;10274;49.022;9.338;2023-04-06T05:03:51;6.77;;;5.13;;
20230;SDS011;10274;49.022;9.338;2023-04-06T05:06:19;6.70;;;5.37;;
20230;SDS011;10274;49.022;9.338;2023-04-06T05:08:46;7.67;;;5.13;;
20230;SDS011;10274;49.022;9.338;2023-04-06T05:11:13;6.93;;;5.13;;
20230;SDS011;10274;49.022;9.338;2023-04-06T05:13:39;5.87;;;5.07;;
20230;SDS011;10274;49.022;9.338;2023-04-06T05:16:06;7.60;;;5.27;;
20230;SDS011;10274;49.022;9.338;2023-04-06T05:18:33;5.83;;;5.03;;
20230;SDS011;10274;49.022;9.338;2023-04-06T05:20:59;7.27;;;5.80;;
20230;SDS011;10274;49.022;9.338;2023-04-06T05:23:27;6.10;;;5.50;;
20230;SDS011;10274;49.022;9.338;2023-04-06T05:25:54;6.67;;;5.63;;
20230;SDS011;10274;49.022;9.338;2023-04-06T05:28:21;6.83;;;4.93;;
20230;SDS011;10274;49.022;9.338;2023-04-06T05:30:48;8.07;;;5.40;;
20230;SDS011;10274;49.022;9.338;2023-04-06T05:33:15;5.97;;;5.23;;
20230;SDS011;10274;49.022;9.338;2023-04-06T05:35:41;6.17;;;4.93;;
20230;SDS011;10274;49.022;9.338;2023-04-06T05:38:08;5.87;;;4.93;;
20230;SDS011;10274;49.022;9.338;2023-04-06T05:40:37;7.93;;;5.63;;
20230;SDS011;10274;49.022;9.338;2023-04-06T05:43:05;8.47;;;5.63;;
20230;SDS011;10274;49.022;9.338;2023-04-06T05:45:32;5.83;;;5.23;;
20230;SDS011;10274;49.022;9.338;2023-04-06T05:48:00;6.13;;;5.00;;
20230;SDS011;10274;49.022;9.338;2023-04-06T05:50:26;5.23;;;4.60;;
20230;SDS011;10274;49.022;9.338;2023-04-06T05:52:53;7.30;;;5.10;;
20230;SDS011;10274;49.022;9.338;2023-04-06T05:55:20;7.63;;;5.57;;
20230;SDS011;10274;49.022;9.338;2023-04-06T05:57:48;7.13;;;5.27;;
20230;SDS011;10274;49.022;9.338;2023-04-06T06:00:15;9.80;;;5.90;;
20230;SDS011;10274;49.022;9.338;2023-04-06T06:02:42;6.20;;;5.23;;
20230;SDS011;10274;49.022;9.338;2023-04-06T06:05:08;7.43;;;5.53;;
20230;SDS011;10274;49.022;9.338;2023-04-06T06:07:35;6.27;;;5.47;;
20230;SDS011;10274;49.022;9.338;2023-04-06T06:10:02;11.30;;;8.80;;
20230;SDS011;10274;49.022;9.338;2023-04-06T06:12:29;10.40;;;6.87;;
20230;SDS011;10274;49.022;9.338;2023-04-06T06:14:57;7.90;;;6.73;;
20230;SDS011;10274;49.022;9.338;2023-04-06T06:17:25;7.23;;;5.73;;
20230;SDS011;10274;49.022;9.338;2023-04-06T06:19:51;6.60;;;5.77;;
20230;SDS011;10274;49.022;9.338;2023-04-06T06:22:18;7.70;;;6.27;;
20230;SDS011;10274;49.022;9.338;2023-04-06T06:24:45;9.40;;;6.20;;
20230;SDS011;10274;49.022;9.338;2023-04-06T06:27:11;8.80;;;6.73;;
20230;SDS011;10274;49.022;9.338;2023-04-06T06:29:38;7.90;;;6.27;;
20230;SDS011;10274;49.022;9.338;2023-04-06T06:32:06;6.23;;;5.30;;
20230;SDS011;10274;49.022;9.338;2023-04-06T06:34:34;7.13;;;5.90;;
20230;SDS011;10274;49.022;9.338;2023-04-06T06:37:00;7.43;;;5.60;;
20230;SDS011;10274;49.022;9.338;2023-04-06T06:39:27;8.50;;;6.13;;
20230;SDS011;10274;49.022;9.338;2023-04-06T06:41:54;7.90;;;5.37;;
20230;SDS011;10274;49.022;9.338;2023-04-06T06:44:21;7.47;;;5.53;;
20230;SDS011;10274;49.022;9.338;2023-04-06T06:46:48;7.10;;;5.00;;
20230;SDS011;10274;49.022;9.338;2023-04-06T06:49:16;7.20;;;6.00;;
20230;SDS011;10274;49.022;9.338;2023-04-06T06:51:43;6.07;;;5.00;;
20230;SDS011;10274;49.022;9.338;2023-04-06T06:54:10;7.97;;;5.77;;
20230;SDS011;10274;49.022;9.338;2023-04-06T06:56:37;6.03;;;4.90;;
20230;SDS011;10274;49.022;9.338;2023-04-06T06:59:04;7.53;;;5.73;;
20230;SDS011;10274;49.022;9.338;2023-04-06T07:01:32;8.53;;;5.57;;
20230;SDS011;10274;49.022;9.338;2023-04-06T07:03:59;7.97;;;5.87;;
20230;SDS011;10274;49.022;9.338;2023-04-06T07:06:27;7.33;;;5.90;;
20230;SDS011;10274;49.022;9.338;2023-04-06T07:08:54;6.47;;;5.23;;
20230;SDS011;10274;49.022;9.338;2023-04-06T07:11:20;8.10;;;6.17;;
20230;SDS011;10274;49.022;9.338;2023-04-06T07:13:47;11.10;;;6.73;;
20230;SDS011;10274;49.022;9.338;2023-04-06T07:16:14;8.67;;;6.17;;
20230;SDS011;10274;49.022;9.338;2023-04-06T07:18:41;11.03;;;6.47;;
20230;SDS011;10274;49.022;9.338;2023-04-06T07:21:08;11.57;;;6.70;;
20230;SDS011;10274;49.022;9.338;2023-04-06T07:23:36;13.03;;;7.83;;
20230;SDS011;10274;49.022;9.338;2023-04-06T07:26:03;14.50;;;7.90;;
20230;SDS011;10274;49.022;9.338;2023-04-06T07:28:30;16.70;;;8.90;;
20230;SDS011;10274;49.022;9.338;2023-04-06T07:30:57;19.13;;;7.47;;
20230;SDS011;10274;49.022;9.338;2023-04-06T07:33:23;15.70;;;8.53;;
20230;SDS011;10274;49.022;9.338;2023-04-06T07:35:54;17.17;;;8.13;;
20230;SDS011;10274;49.022;9.338;2023-04-06T07:38:21;14.47;;;6.93;;
20230;SDS011;10274;49.022;9.338;2023-04-06T07:40:49;9.00;;;5.93;;
20230;SDS011;10274;49.022;9.338;2023-04-06T07:43:16;9.07;;;6.10;;
20230;SDS011;10274;49.022;9.338;2023-04-06T07:45:42;9.43;;;5.30;;
20230;SDS011;10274;49.022;9.338;2023-04-06T07:48:09;12.97;;;5.90;;
20230;SDS011;10274;49.022;9.338;2023-04-06T07:50:36;9.10;;;4.93;;
20230;SDS011;10274;49.022;9.338;2023-04-06T07:53:02;5.97;;;3.70;;
20230;SDS011;10274;49.022;9.338;2023-04-06T07:55:29;4.73;;;3.37;;
20230;SDS011;10274;49.022;9.338;2023-04-06T07:57:57;5.60;;;4.13;;
20230;SDS011;10274;49.022;9.338;2023-04-06T08:00:24;9.03;;;4.33;;
20230;SDS011;10274;49.022;9.338;2023-04-06T08:02:51;4.87;;;3.30;;
20230;SDS011;10274;49.022;9.338;2023-04-06T08:05:17;5.07;;;3.77;;
20230;SDS011;10274;49.022;9.338;2023-04-06T08:07:44;5.33;;;3.77;;
20230;SDS011;10274;49.022;9.338;2023-04-06T08:10:11;4.60;;;3.33;;
20230;SDS011;10274;49.022;9.338;2023-04-06T08:12:37;5.07;;;3.67;;
20230;SDS011;10274;49.022;9.338;2023-04-06T08:15:06;5.43;;;4.10;;
20230;SDS011;10274;49.022;9.338;2023-04-06T08:17:33;5.57;;;3.70;;
20230;SDS011;10274;49.022;9.338;2023-04-06T08:20:00;5.17;;;3.37;;
20230;SDS011;10274;49.022;9.338;2023-04-06T08:22:28;4.87;;;3.63;;
20230;SDS011;10274;49.022;9.338;2023-04-06T08:24:54;7.73;;;3.50;;
20230;SDS011;10274;49.022;9.338;2023-04-06T08:27:21;4.63;;;3.67;;
20230;SDS011;10274;49.022;9.338;2023-04-06T08:29:49;4.27;;;3.20;;
20230;SDS011;10274;49.022;9.338;2023-04-06T08:32:17;5.80;;;3.33;;
20230;SDS011;10274;49.022;9.338;2023-04-06T08:34:44;5.07;;;2.97;;
20230;SDS011;10274;49.022;9.338;2023-04-06T08:37:11;4.43;;;3.67;;
20230;SDS011;10274;49.022;9.338;2023-04-06T08:39:37;5.17;;;3.27;;
20230;SDS011;10274;49.022;9.338;2023-04-06T08:42:09;3.50;;;3.07;;
20230;SDS011;10274;49.022;9.338;2023-04-06T08:44:39;4.80;;;3.00;;
20230;SDS011;10274;49.022;9.338;2023-04-06T08:47:07;4.97;;;3.17;;
20230;SDS011;10274;49.022;9.338;2023-04-06T08:49:35;4.40;;;3.07;;
20230;SDS011;10274;49.022;9.338;2023-04-06T08:52:05;3.83;;;2.83;;
20230;SDS011;10274;49.022;9.338;2023-04-06T08:54:32;3.20;;;2.83;;
20230;SDS011;10274;49.022;9.338;2023-04-06T08:56:59;2.83;;;2.57;;
20230;SDS011;10274;49.022;9.338;2023-04-06T08:59:26;6.03;;;3.60;;
20230;SDS011;10274;49.022;9.338;2023-04-06T09:01:53;5.00;;;3.70;;
20230;SDS011;10274;49.022;9.338;2023-04-06T09:04:21;5.13;;;3.73;;
20230;SDS011;10274;49.022;9.338;2023-04-06T09:06:49;7.70;;;3.63;;
20230;SDS011;10274;49.022;9.338;2023-04-06T09:09:16;3.73;;;3.10;;
20230;SDS011;10274;49.022;9.338;2023-04-06T09:11:46;4.03;;;2.93;;
20230;SDS011;10274;49.022;9.338;2023-04-06T09:14:14;3.90;;;3.37;;
20230;SDS011;10274;49.022;9.338;2023-04-06T09:16:41;5.37;;;4.00;;
20230;SDS011;10274;49.022;9.338;2023-04-06T09:19:10;5.23;;;3.47;;
20230;SDS011;10274;49.022;9.338;2023-04-06T09:21:37;7.13;;;4.03;;
20230;SDS011;10274;49.022;9.338;2023-04-06T09:24:06;3.87;;;3.10;;
20230;SDS011;10274;49.022;9.338;2023-04-06T09:26:43;4.53;;;3.37;;
20230;SDS011;10274;49.022;9.338;2023-04-06T09:29:21;5.57;;;3.50;;
20230;SDS011;10274;49.022;9.338;2023-04-06T09:31:49;4.97;;;3.70;;
20230;SDS011;10274;49.022;9.338;2023-04-06T09:34:20;4.37;;;3.57;;
20230;SDS011;10274;49.022;9.338;2023-04-06T09:36:47;5.00;;;3.40;;
20230;SDS011;10274;49.022;9.338;2023-04-06T09:39:19;3.90;;;3.27;;
20230;SDS011;10274;49.022;9.338;2023-04-06T09:41:51;5.50;;;3.83;;
20230;SDS011;10274;49.022;9.338;2023-04-06T09:44:19;4.87;;;3.30;;
20230;SDS011;10274;49.022;9.338;2023-04-06T09:46:46;5.30;;;4.53;;
20230;SDS011;10274;49.022;9.338;2023-04-06T09:49:13;4.93;;;3.33;;
20230;SDS011;10274;49.022;9.338;2023-04-06T09:51:40;6.20;;;3.80;;
20230;SDS011;10274;49.022;9.338;2023-04-06T09:54:18;4.60;;;3.70;;
20230;SDS011;10274;49.022;9.338;2023-04-06T09:56:46;4.77;;;3.63;;
20230;SDS011;10274;49.022;9.338;2023-04-06T09:59:14;6.32;;;4.68;;
20230;SDS011;10274;49.022;9.338;2023-04-06T10:01:48;4.13;;;3.23;;
20230;SDS011;10274;49.022;9.338;2023-04-06T10:04:20;5.97;;;3.30;;
20230;SDS011;10274;49.022;9.338;2023-04-06T10:06:54;4.03;;;3.27;;
20230;SDS011;10274;49.022;9.338;2023-04-06T10:09:24;4.83;;;3.77;;
20230;SDS011;10274;49.022;9.338;2023-04-06T10:11:54;3.60;;;3.23;;
20230;SDS011;10274;49.022;9.338;2023-04-06T10:14:21;4.90;;;2.90;;
20230;SDS011;10274;49.022;9.338;2023-04-06T10:16:48;6.00;;;3.40;;
20230;SDS011;10274;49.022;9.338;2023-04-06T10:19:16;4.27;;;3.00;;
20230;SDS011;10274;49.022;9.338;2023-04-06T10:21:47;4.27;;;3.03;;
20230;SDS011;10274;49.022;9.338;2023-04-06T10:24:16;4.40;;;2.93;;
20230;SDS011;10274;49.022;9.338;2023-04-06T10:26:44;4.50;;;3.00;;
20230;SDS011;10274;49.022;9.338;2023-04-06T10:29:22;3.73;;;2.70;;
20230;SDS011;10274;49.022;9.338;2023-04-06T10:31:49;5.97;;;3.30;;
20230;SDS011;10274;49.022;9.338;2023-04-06T10:34:16;5.60;;;2.60;;
20230;SDS011;10274;49.022;9.338;2023-04-06T10:36:43;3.57;;;2.43;;
20230;SDS011;10274;49.022;9.338;2023-04-06T10:39:09;4.47;;;2.90;;
20230;SDS011;10274;49.022;9.338;2023-04-06T10:41:36;5.30;;;3.40;;
20230;SDS011;10274;49.022;9.338;2023-04-06T10:44:16;3.43;;;3.10;;
20230;SDS011;10274;49.022;9.338;2023-04-06T10:46:51;3.93;;;3.17;;
20230;SDS011;10274;49.022;9.338;2023-04-06T10:49:19;5.47;;;4.00;;
20230;SDS011;10274;49.022;9.338;2023-04-06T10:51:50;3.80;;;3.00;;
20230;SDS011;10274;49.022;9.338;2023-04-06T10:54:17;4.60;;;3.57;;
20230;SDS011;10274;49.022;9.338;2023-04-06T10:56:45;4.40;;;2.93;;
20230;SDS011;10274;49.022;9.338;2023-04-06T10:59:13;4.97;;;4.13;;
20230;SDS011;10274;49.022;9.338;2023-04-06T11:01:44;5.00;;;3.57;;
20230;SDS011;10274;49.022;9.338;2023-04-06T11:04:15;6.77;;;3.87;;
20230;SDS011;10274;49.022;9.338;2023-04-06T11:06:45;4.93;;;3.47;;
20230;SDS011;10274;49.022;9.338;2023-04-06T11:09:22;5.07;;;3.90;;
20230;SDS011;10274;49.022;9.338;2023-04-06T11:11:50;7.47;;;3.80;;
20230;SDS011;10274;49.022;9.338;2023-04-06T11:14:18;4.17;;;3.23;;
20230;SDS011;10274;49.022;9.338;2023-04-06T11:16:46;5.27;;;3.53;;
20230;SDS011;10274;49.022;9.338;2023-04-06T11:19:13;5.70;;;3.70;;
20230;SDS011;10274;49.022;9.338;2023-04-06T11:21:41;4.17;;;3.50;;
20230;SDS011;10274;49.022;9.338;2023-04-06T11:24:10;4.67;;;3.77;;
20230;SDS011;10274;49.022;9.338;2023-04-06T11:26:39;5.63;;;4.03;;
20230;SDS011;10274;49.022;9.338;2023-04-06T11:29:06;5.20;;;3.47;;
20230;SDS011;10274;49.022;9.338;2023-04-06T11:31:38;7.27;;;4.03;;
20230;SDS011;10274;49.022;9.338;2023-04-06T11:34:09;4.67;;;3.57;;
20230;SDS011;10274;49.022;9.338;2023-04-06T11:36:39;4.70;;;3.57;;
20230;SDS011;10274;49.022;9.338;2023-04-06T11:39:08;8.03;;;4.03;;
20230;SDS011;10274;49.022;9.338;2023-04-06T11:41:35;5.10;;;3.90;;
20230;SDS011;10274;49.022;9.338;2023-04-06T11:44:02;4.73;;;3.70;;
20230;SDS011;10274;49.022;9.338;2023-04-06T11:46:29;5.23;;;3.50;;
20230;SDS011;10274;49.022;9.338;2023-04-06T11:48:59;4.97;;;3.60;;
20230;SDS011;10274;49.022;9.338;2023-04-06T11:51:28;6.13;;;3.93;;
20230;SDS011;10274;49.022;9.338;2023-04-06T11:53:55;4.27;;;3.07;;
20230;SDS011;10274;49.022;9.338;2023-04-06T11:56:25;3.47;;;3.10;;
20230;SDS011;10274;49.022;9.338;2023-04-06T11:58:56;5.63;;;3.37;;
20230;SDS011;10274;49.022;9.338;2023-04-06T12:01:25;5.07;;;3.53;;
20230;SDS011;10274;49.022;9.338;2023-04-06T12:03:52;3.63;;;2.97;;
20230;SDS011;10274;49.022;9.338;2023-04-06T12:06:20;4.20;;;3.23;;
20230;SDS011;10274;49.022;9.338;2023-04-06T12:08:47;5.50;;;3.53;;
20230;SDS011;10274;49.022;9.338;2023-04-06T12:11:14;5.53;;;3.37;;
20230;SDS011;10274;49.022;9.338;2023-04-06T12:13:40;4.63;;;3.40;;
20230;SDS011;10274;49.022;9.338;2023-04-06T12:16:07;5.37;;;3.80;;
20230;SDS011;10274;49.022;9.338;2023-04-06T12:18:34;3.53;;;2.80;;
20230;SDS011;10274;49.022;9.338;2023-04-06T12:21:01;5.27;;;3.60;;
20230;SDS011;10274;49.022;9.338;2023-04-06T12:23:29;5.07;;;3.20;;
20230;SDS011;10274;49.022;9.338;2023-04-06T12:25:55;4.63;;;3.50;;
20230;SDS011;10274;49.022;9.338;2023-04-06T12:28:22;5.43;;;3.80;;
20230;SDS011;10274;49.022;9.338;2023-04-06T12:30:51;6.33;;;3.37;;
20230;SDS011;10274;49.022;9.338;2023-04-06T12:33:18;5.07;;;3.90;;
20230;SDS011;10274;49.022;9.338;2023-04-06T12:35:45;6.07;;;3.90;;
20230;SDS011;10274;49.022;9.338;2023-04-06T12:38:12;5.37;;;3.40;;
20230;SDS011;10274;49.022;9.338;2023-04-06T12:40:40;5.13;;;3.07;;
20230;SDS011;10274;49.022;9.338;2023-04-06T12:43:07;5.10;;;3.63;;
20230;SDS011;10274;49.022;9.338;2023-04-06T12:45:33;4.60;;;3.17;;
20230;SDS011;10274;49.022;9.338;2023-04-06T12:48:00;4.67;;;3.13;;
20230;SDS011;10274;49.022;9.338;2023-04-06T12:50:27;4.13;;;2.83;;
20230;SDS011;10274;49.022;9.338;2023-04-06T12:52:54;4.97;;;3.50;;
20230;SDS011;10274;49.022;9.338;2023-04-06T12:55:20;5.33;;;2.90;;
20230;SDS011;10274;49.022;9.338;2023-04-06T12:57:48;2.60;;;2.33;;
20230;SDS011;10274;49.022;9.338;2023-04-06T13:00:16;4.97;;;2.93;;
20230;SDS011;10274;49.022;9.338;2023-04-06T13:02:43;4.67;;;3.40;;
20230;SDS011;10274;49.022;9.338;2023-04-06T13:05:12;3.43;;;3.07;;
20230;SDS011;10274;49.022;9.338;2023-04-06T13:07:39;3.90;;;2.80;;
20230;SDS011;10274;49.022;9.338;2023-04-06T13:10:06;4.83;;;2.73;;
20230;SDS011;10274;49.022;9.338;2023-04-06T13:12:34;3.90;;;2.93;;
20230;SDS011;10274;49.022;9.338;2023-04-06T13:15:02;3.73;;;2.80;;
20230;SDS011;10274;49.022;9.338;2023-04-06T13:17:30;3.20;;;2.47;;
20230;SDS011;10274;49.022;9.338;2023-04-06T13:19:57;3.93;;;2.63;;
20230;SDS011;10274;49.022;9.338;2023-04-06T13:22:24;4.70;;;3.30;;
20230;SDS011;10274;49.022;9.338;2023-04-06T13:24:51;4.60;;;3.40;;
20230;SDS011;10274;49.022;9.338;2023-04-06T13:27:17;3.10;;;2.63;;
20230;SDS011;10274;49.022;9.338;2023-04-06T13:29:44;3.70;;;2.83;;
20230;SDS011;10274;49.022;9.338;2023-04-06T13:32:12;6.17;;;3.60;;
20230;SDS011;10274;49.022;9.338;2023-04-06T13:34:39;4.93;;;3.83;;
20230;SDS011;10274;49.022;9.338;2023-04-06T13:37:09;4.43;;;3.20;;
20230;SDS011;10274;49.022;9.338;2023-04-06T13:39:37;4.87;;;3.47;;
20230;SDS011;10274;49.022;9.338;2023-04-06T13:42:03;4.23;;;3.30;;
20230;SDS011;10274;49.022;9.338;2023-04-06T13:44:31;4.57;;;3.77;;
20230;SDS011;10274;49.022;9.338;2023-04-06T13:46:58;5.57;;;3.20;;
20230;SDS011;10274;49.022;9.338;2023-04-06T13:49:26;5.43;;;3.13;;
20230;SDS011;10274;49.022;9.338;2023-04-06T13:51:53;4.10;;;3.30;;
20230;SDS011;10274;49.022;9.338;2023-04-06T13:54:19;3.93;;;3.13;;
20230;SDS011;10274;49.022;9.338;2023-04-06T13:56:46;4.90;;;3.10;;
20230;SDS011;10274;49.022;9.338;2023-04-06T13:59:13;4.90;;;3.30;;
20230;SDS011;10274;49.022;9.338;2023-04-06T14:01:40;5.83;;;3.57;;
20230;SDS011;10274;49.022;9.338;2023-04-06T14:04:07;4.63;;;3.03;;
20230;SDS011;10274;49.022;9.338;2023-04-06T14:06:34;4.50;;;2.87;;
20230;SDS011;10274;49.022;9.338;2023-04-06T14:09:01;5.57;;;3.23;;
20230;SDS011;10274;49.022;9.338;2023-04-06T14:11:28;4.93;;;3.27;;
20230;SDS011;10274;49.022;9.338;2023-04-06T14:13:56;3.80;;;2.90;;
20230;SDS011;10274;49.022;9.338;2023-04-06T14:16:23;4.13;;;3.33;;
20230;SDS011;10274;49.022;9.338;2023-04-06T14:18:50;5.07;;;3.70;;
20230;SDS011;10274;49.022;9.338;2023-04-06T14:21:17;5.97;;;3.87;;
20230;SDS011;10274;49.022;9.338;2023-04-06T14:23:46;4.37;;;3.13;;
20230;SDS011;10274;49.022;9.338;2023-04-06T14:26:12;3.97;;;3.17;;
20230;SDS011;10274;49.022;9.338;2023-04-06T14:28:40;5.50;;;3.53;;
20230;SDS011;10274;49.022;9.338;2023-04-06T14:31:09;4.77;;;3.37;;
20230;SDS011;10274;49.022;9.338;2023-04-06T14:33:38;5.13;;;3.43;;
20230;SDS011;10274;49.022;9.338;2023-04-06T14:36:05;4.03;;;3.20;;
20230;SDS011;10274;49.022;9.338;2023-04-06T14:38:32;3.93;;;3.50;;
20230;SDS011;10274;49.022;9.338;2023-04-06T14:41:01;5.20;;;3.47;;
20230;SDS011;10274;49.022;9.338;2023-04-06T14:43:27;5.27;;;3.30;;
20230;SDS011;10274;49.022;9.338;2023-04-06T14:45:54;4.07;;;2.90;;
20230;SDS011;10274;49.022;9.338;2023-04-06T14:48:25;5.47;;;3.70;;
20230;SDS011;10274;49.022;9.338;2023-04-06T14:50:52;6.07;;;3.70;;